| time (UTC) | temp F | wind direction | speed MPH | gust MPH | rain 1hr in | rain 24hr in | rain mn in | humidity % | barometer mb |
| 20260507210207 | 42 | 261 | 0.0 | 0.0 | 0.00 | 0.00 | 0.00 | 57 | 1019.1 |
| 20260507205205 | 42 | 261 | 0.0 | 0.0 | 0.00 | 0.00 | 0.00 | 57 | 1019.1 |
| 20260507204721 | 43 | 261 | 0.0 | 0.0 | 0.00 | 0.00 | 0.00 | 56 | 1019.0 |
| 20260507204208 | 43 | 261 | 0.0 | 0.0 | 0.00 | 0.00 | 0.00 | 55 | 1019.0 |
| 20260507203205 | 44 | 261 | 0.0 | 0.0 | 0.00 | 0.00 | 0.00 | 54 | 1018.9 |
| 20260507202705 | 44 | 261 | 0.0 | 0.0 | 0.00 | 0.00 | 0.00 | 53 | 1018.9 |
| 20260507202205 | 45 | 261 | 0.0 | 0.0 | 0.00 | 0.00 | 0.00 | 52 | 1018.9 |
| 20260507201656 | 38 | 276 | 0.0 | 0.0 | 0.00 | 0.00 | 0.00 | 72 | 1012.4 |
| 20260507201208 | 46 | 261 | 0.0 | 0.0 | 0.00 | 0.00 | 0.00 | 49 | 1018.9 |
| 20260507200704 | 46 | 261 | 0.0 | 0.0 | 0.00 | 0.00 | 0.00 | 50 | 1018.8 |
| 20260507200207 | 47 | 261 | 0.0 | 0.0 | 0.00 | 0.00 | 0.00 | 49 | 1018.7 |
| 20260507195706 | 47 | 261 | 0.0 | 0.0 | 0.00 | 0.00 | 0.00 | 48 | 1018.6 |
| 20260507194711 | 48 | 261 | 0.0 | 0.0 | 0.00 | 0.00 | 0.00 | 47 | 1018.5 |
| 20260507194205 | 48 | 261 | 0.0 | 2.0 | 0.00 | 0.00 | 0.00 | 46 | 1018.5 |
| 20260507193855 | 58 | 252 | 3.0 | 8.0 | 0.00 | 0.00 | 0.00 | 24 | 1010.5 |
| 20260507193705 | 49 | 261 | 0.0 | 3.0 | 0.00 | 0.00 | 0.00 | 43 | 1018.4 |
| 20260507193206 | 49 | 261 | 1.0 | 3.0 | 0.00 | 0.00 | 0.00 | 42 | 1018.3 |
| 20260507192205 | 51 | 261 | 1.0 | 2.0 | 0.00 | 0.00 | 0.00 | 40 | 1018.2 |
| 20260507191206 | 52 | 261 | 0.0 | 3.0 | 0.00 | 0.00 | 0.00 | 38 | 1018.0 |
| 20260507190705 | 52 | 261 | 1.0 | 4.0 | 0.00 | 0.00 | 0.00 | 38 | 1018.0 |
| 20260507185209 | 54 | 260 | 1.0 | 3.0 | 0.00 | 0.00 | 0.00 | 36 | 1017.8 |
| 20260507185020 | 54 | 260 | 1.0 | 5.0 | 0.00 | 0.00 | 0.00 | 35 | 1017.7 |
| 20260507184209 | 54 | 260 | 2.0 | 6.0 | 0.00 | 0.00 | 0.00 | 34 | 1017.6 |
| 20260507183706 | 55 | 260 | 2.0 | 6.0 | 0.00 | 0.00 | 0.00 | 34 | 1017.6 |
| 20260507183205 | 55 | 260 | 2.0 | 9.0 | 0.00 | 0.00 | 0.00 | 34 | 1017.5 |
| 20260507182706 | 55 | 263 | 2.0 | 9.0 | 0.00 | 0.00 | 0.00 | 33 | 1017.5 |
| 20260507182207 | 56 | 264 | 2.0 | 9.0 | 0.00 | 0.00 | 0.00 | 32 | 1017.4 |
| 20260507181205 | 56 | 277 | 5.0 | 10.0 | 0.00 | 0.00 | 0.00 | 31 | 1017.4 |
| 20260507180206 | 57 | 280 | 5.0 | 10.0 | 0.00 | 0.00 | 0.00 | 30 | 1017.2 |
| 20260507175705 | 57 | 258 | 4.0 | 10.0 | 0.00 | 0.00 | 0.00 | 30 | 1017.2 |
| 20260507175208 | 57 | 265 | 4.0 | 10.0 | 0.00 | 0.00 | 0.00 | 31 | 1017.1 |
| 20260507174705 | 57 | 261 | 4.0 | 10.0 | 0.00 | 0.00 | 0.00 | 30 | 1017.0 |
| 20260507174205 | 58 | 300 | 4.0 | 10.0 | 0.00 | 0.00 | 0.00 | 30 | 1017.0 |
| 20260507173704 | 58 | 320 | 4.0 | 10.0 | 0.00 | 0.00 | 0.00 | 29 | 1017.0 |
| 20260507173205 | 58 | 240 | 3.0 | 10.0 | 0.00 | 0.00 | 0.00 | 29 | 1017.0 |
| 20260507172705 | 58 | 259 | 4.0 | 10.0 | 0.00 | 0.00 | 0.00 | 30 | 1016.9 |
| 20260507172205 | 58 | 267 | 5.0 | 13.0 | 0.00 | 0.00 | 0.00 | 30 | 1016.9 |
| 20260507171706 | 58 | 258 | 6.0 | 13.0 | 0.00 | 0.00 | 0.00 | 29 | 1016.8 |
| 20260507171333 | 53 | 286 | 5.0 | 13.0 | 0.00 | 0.00 | 0.00 | 27 | 1010.3 |
| 20260507170707 | 59 | 276 | 5.0 | 14.0 | 0.00 | 0.00 | 0.00 | 29 | 1016.7 |
| 20260507170207 | 59 | 265 | 6.0 | 14.0 | 0.00 | 0.00 | 0.00 | 29 | 1016.6 |
| 20260507165705 | 59 | 293 | 6.0 | 11.0 | 0.00 | 0.00 | 0.00 | 28 | 1016.6 |
| 20260507164713 | 59 | 231 | 5.0 | 12.0 | 0.00 | 0.00 | 0.00 | 27 | 1016.5 |
| 20260507164207 | 60 | 257 | 6.0 | 12.0 | 0.00 | 0.00 | 0.00 | 27 | 1016.5 |
| 20260507163711 | 60 | 36 | 5.0 | 12.0 | 0.00 | 0.00 | 0.00 | 28 | 1016.4 |
| 20260507162705 | 60 | 243 | 6.0 | 13.0 | 0.00 | 0.00 | 0.00 | 28 | 1016.3 |
| 20260507162206 | 60 | 287 | 5.0 | 13.0 | 0.00 | 0.00 | 0.00 | 27 | 1016.3 |
| 20260507161721 | 60 | 296 | 5.0 | 13.0 | 0.00 | 0.00 | 0.00 | 28 | 1016.3 |
| 20260507160707 | 60 | 286 | 3.0 | 8.0 | 0.00 | 0.00 | 0.00 | 28 | 1016.2 |
| 20260507160258 | 60 | 298 | 3.0 | 8.0 | 0.00 | 0.00 | 0.00 | 26 | 1016.2 |
| 20260507160101 | 46 | 219 | 7.0 | 16.0 | 0.00 | 0.04 | 0.04 | 84 | 1007.4 |
| 20260507155708 | 61 | 298 | 3.0 | 8.0 | 0.00 | 0.00 | 0.00 | 26 | 1016.2 |
| 20260507155208 | 61 | 304 | 3.0 | 9.0 | 0.00 | 0.00 | 0.00 | 26 | 1016.2 |
| 20260507154206 | 61 | 277 | 3.0 | 9.0 | 0.00 | 0.00 | 0.00 | 27 | 1016.1 |
| 20260507153706 | 61 | 343 | 3.0 | 17.0 | 0.00 | 0.00 | 0.00 | 27 | 1016.1 |
| 20260507153206 | 61 | 271 | 3.0 | 17.0 | 0.00 | 0.00 | 0.00 | 26 | 1016.0 |
| 20260507152706 | 61 | 306 | 4.0 | 17.0 | 0.00 | 0.00 | 0.00 | 26 | 1016.0 |
| 20260507152205 | 61 | 346 | 4.0 | 8.0 | 0.00 | 0.00 | 0.00 | 26 | 1015.9 |
| 20260507151710 | 61 | 333 | 3.0 | 8.0 | 0.00 | 0.00 | 0.00 | 27 | 1016.0 |
| 20260507151205 | 61 | 242 | 3.0 | 8.0 | 0.00 | 0.00 | 0.00 | 27 | 1016.0 |
| 20260507150705 | 60 | 325 | 3.0 | 8.0 | 0.00 | 0.00 | 0.00 | 27 | 1016.0 |
| 20260507150206 | 60 | 134 | 4.0 | 8.0 | 0.00 | 0.00 | 0.00 | 27 | 1015.9 |
| 20260507145707 | 60 | 190 | 4.0 | 10.0 | 0.00 | 0.00 | 0.00 | 26 | 1016.0 |
| 20260507145205 | 61 | 234 | 4.0 | 10.0 | 0.00 | 0.00 | 0.00 | 26 | 1016.0 |
| 20260507143707 | 61 | 300 | 2.0 | 7.0 | 0.00 | 0.00 | 0.00 | 29 | 1015.9 |
| 20260507143204 | 61 | 214 | 3.0 | 9.0 | 0.00 | 0.00 | 0.00 | 28 | 1015.9 |
| 20260507142710 | 61 | 217 | 3.0 | 9.0 | 0.00 | 0.00 | 0.00 | 26 | 1015.9 |
| 20260507141205 | 61 | 298 | 4.0 | 9.0 | 0.00 | 0.00 | 0.00 | 27 | 1015.9 |
| 20260507140706 | 61 | 313 | 4.0 | 9.0 | 0.00 | 0.00 | 0.00 | 26 | 1016.0 |
| 20260507135705 | 62 | 290 | 2.0 | 14.0 | 0.00 | 0.00 | 0.00 | 26 | 1015.9 |
| 20260507134707 | 61 | 259 | 4.0 | 14.0 | 0.00 | 0.00 | 0.00 | 29 | 1015.9 |
| 20260507134205 | 60 | 219 | 3.0 | 9.0 | 0.00 | 0.00 | 0.00 | 28 | 1015.9 |
| 20260507133706 | 60 | 216 | 3.0 | 9.0 | 0.00 | 0.00 | 0.00 | 27 | 1015.9 |
| 20260507132706 | 60 | 271 | 4.0 | 13.0 | 0.00 | 0.00 | 0.00 | 29 | 1015.9 |
| 20260507132204 | 60 | 329 | 4.0 | 11.0 | 0.00 | 0.00 | 0.00 | 28 | 1015.9 |
| 20260507131706 | 60 | 242 | 3.0 | 9.0 | 0.00 | 0.00 | 0.00 | 29 | 1015.9 |
| 20260507131204 | 60 | 253 | 4.0 | 9.0 | 0.00 | 0.00 | 0.00 | 27 | 1015.8 |
| 20260507130704 | 60 | 294 | 4.0 | 8.0 | 0.00 | 0.00 | 0.00 | 28 | 1015.8 |
| 20260507125206 | 59 | 111 | 3.0 | 9.0 | 0.00 | 0.00 | 0.00 | 28 | 1015.8 |
| 20260507124705 | 59 | 30 | 4.0 | 9.0 | 0.00 | 0.00 | 0.00 | 30 | 1015.8 |
| 20260507124205 | 59 | 332 | 4.0 | 9.0 | 0.00 | 0.00 | 0.00 | 29 | 1015.7 |
| 20260507123704 | 60 | 316 | 3.0 | 9.0 | 0.00 | 0.00 | 0.00 | 28 | 1015.7 |
| 20260507122708 | 60 | 186 | 4.0 | 8.0 | 0.00 | 0.00 | 0.00 | 27 | 1015.7 |
| 20260507122205 | 60 | 234 | 3.0 | 9.0 | 0.00 | 0.00 | 0.00 | 28 | 1015.7 |
| 20260507121717 | 59 | 275 | 4.0 | 10.0 | 0.00 | 0.00 | 0.00 | 29 | 1015.8 |
| 20260507121206 | 59 | 316 | 4.0 | 10.0 | 0.00 | 0.00 | 0.00 | 28 | 1015.7 |
| 20260507120705 | 59 | 275 | 4.0 | 10.0 | 0.00 | 0.00 | 0.00 | 30 | 1015.7 |
| 20260507120206 | 59 | 313 | 3.0 | 9.0 | 0.00 | 0.00 | 0.00 | 29 | 1015.7 |
| 20260507115706 | 59 | 32 | 3.0 | 8.0 | 0.00 | 0.00 | 0.00 | 29 | 1015.7 |
| 20260507115206 | 59 | 0 | 2.0 | 8.0 | 0.00 | 0.00 | 0.00 | 31 | 1015.7 |
| 20260507114705 | 59 | 59 | 2.0 | 9.0 | 0.00 | 0.00 | 0.00 | 29 | 1015.6 |
| 20260507114206 | 59 | 323 | 3.0 | 9.0 | 0.00 | 0.00 | 0.00 | 31 | 1015.7 |
| 20260507113705 | 58 | 299 | 5.0 | 8.0 | 0.00 | 0.00 | 0.00 | 29 | 1015.8 |
| 20260507113205 | 58 | 214 | 4.0 | 8.0 | 0.00 | 0.00 | 0.00 | 29 | 1015.7 |
| 20260507112926 | 45 | 276 | 0.0 | 1.0 | 0.00 | 0.00 | 0.00 | 54 | 1011.3 |
| 20260507112710 | 59 | 348 | 3.0 | 8.0 | 0.00 | 0.00 | 0.00 | 29 | 1015.8 |
| 20260507112208 | 59 | 283 | 3.0 | 8.0 | 0.00 | 0.00 | 0.00 | 29 | 1015.7 |
| 20260507111207 | 58 | 309 | 2.0 | 4.0 | 0.00 | 0.00 | 0.00 | 30 | 1015.8 |
| 20260507110706 | 58 | 133 | 2.0 | 9.0 | 0.00 | 0.00 | 0.00 | 31 | 1015.8 |
| 20260507105705 | 57 | 77 | 3.0 | 11.0 | 0.00 | 0.00 | 0.00 | 31 | 1015.8 |
| 20260507105207 | 57 | 321 | 3.0 | 11.0 | 0.00 | 0.00 | 0.00 | 31 | 1015.8 |
| 20260507104207 | 57 | 62 | 3.0 | 9.0 | 0.00 | 0.00 | 0.00 | 30 | 1015.7 |
| 20260507103205 | 56 | 71 | 3.0 | 9.0 | 0.00 | 0.00 | 0.00 | 31 | 1015.7 |
| 20260507102205 | 57 | 336 | 3.0 | 4.0 | 0.00 | 0.00 | 0.00 | 31 | 1015.6 |
| 20260507100207 | 56 | 283 | 5.0 | 10.0 | 0.00 | 0.00 | 0.00 | 32 | 1015.4 |
| 20260507095705 | 56 | 244 | 4.0 | 9.0 | 0.00 | 0.00 | 0.00 | 32 | 1015.5 |
| 20260507095205 | 56 | 282 | 3.0 | 7.0 | 0.00 | 0.00 | 0.00 | 33 | 1015.3 |
| 20260507094205 | 56 | 240 | 1.0 | 7.0 | 0.00 | 0.00 | 0.00 | 33 | 1015.3 |
| 20260507093705 | 55 | 202 | 2.0 | 13.0 | 0.00 | 0.00 | 0.00 | 33 | 1015.2 |
| 20260507093205 | 55 | 105 | 4.0 | 13.0 | 0.00 | 0.00 | 0.00 | 33 | 1015.2 |
| 20260507092704 | 54 | 333 | 5.0 | 13.0 | 0.00 | 0.00 | 0.00 | 35 | 1015.2 |
| 20260507092214 | 55 | 338 | 4.0 | 8.0 | 0.00 | 0.00 | 0.00 | 32 | 1015.3 |
| 20260507091734 | 55 | 311 | 4.0 | 8.0 | 0.00 | 0.00 | 0.00 | 36 | 1015.3 |
| 20260507090205 | 54 | 52 | 3.0 | 10.0 | 0.00 | 0.00 | 0.00 | 37 | 1015.3 |
| 20260507085206 | 54 | 273 | 4.0 | 10.0 | 0.00 | 0.00 | 0.00 | 40 | 1015.3 |
| 20260507084711 | 54 | 235 | 2.0 | 9.0 | 0.00 | 0.00 | 0.00 | 42 | 1015.3 |
| 20260507084205 | 53 | 263 | 3.0 | 9.0 | 0.00 | 0.00 | 0.00 | 41 | 1015.4 |
| 20260507083705 | 53 | 5 | 3.0 | 9.0 | 0.00 | 0.00 | 0.00 | 41 | 1015.4 |
| 20260507082705 | 53 | 310 | 3.0 | 8.0 | 0.00 | 0.00 | 0.00 | 44 | 1015.3 |
| 20260507082205 | 53 | 62 | 3.0 | 8.0 | 0.00 | 0.00 | 0.00 | 43 | 1015.3 |
| 20260507081705 | 53 | 304 | 3.0 | 8.0 | 0.00 | 0.00 | 0.00 | 44 | 1015.2 |
| 20260507081204 | 53 | 255 | 3.0 | 7.0 | 0.00 | 0.00 | 0.00 | 41 | 1015.2 |
| 20260507075705 | 51 | 238 | 3.0 | 7.0 | 0.00 | 0.00 | 0.00 | 46 | 1015.0 |
| 20260507075206 | 51 | 254 | 3.0 | 8.0 | 0.00 | 0.00 | 0.00 | 45 | 1015.0 |
| 20260507074736 | 51 | 277 | 3.0 | 8.0 | 0.00 | 0.00 | 0.00 | 48 | 1015.0 |
| 20260507074209 | 51 | 211 | 3.0 | 8.0 | 0.00 | 0.00 | 0.00 | 50 | 1015.0 |
| 20260507073705 | 51 | 232 | 2.0 | 7.0 | 0.00 | 0.00 | 0.00 | 50 | 1014.9 |
| 20260507072705 | 51 | 263 | 3.0 | 7.0 | 0.00 | 0.00 | 0.00 | 52 | 1014.8 |
| 20260507072205 | 50 | 279 | 3.0 | 7.0 | 0.00 | 0.00 | 0.00 | 52 | 1014.9 |
| 20260507071710 | 50 | 264 | 3.0 | 7.0 | 0.00 | 0.00 | 0.00 | 54 | 1014.8 |
| 20260507071205 | 50 | 225 | 3.0 | 7.0 | 0.00 | 0.00 | 0.00 | 55 | 1014.8 |
| 20260507070706 | 49 | 242 | 2.0 | 7.0 | 0.00 | 0.00 | 0.00 | 56 | 1014.8 |
| 20260507070205 | 49 | 322 | 2.0 | 7.0 | 0.00 | 0.00 | 0.00 | 57 | 1014.8 |
| 20260507065706 | 49 | 266 | 3.0 | 7.0 | 0.00 | 0.00 | 0.00 | 59 | 1014.8 |
| 20260507065205 | 48 | 238 | 3.0 | 8.0 | 0.00 | 0.00 | 0.00 | 60 | 1014.8 |
| 20260507064707 | 48 | 231 | 3.0 | 8.0 | 0.00 | 0.00 | 0.00 | 60 | 1014.8 |
| 20260507064513 | 48 | 252 | 3.0 | 8.0 | 0.00 | 0.00 | 0.00 | 60 | 1014.8 |
| 20260507063709 | 48 | 257 | 3.0 | 7.0 | 0.00 | 0.00 | 0.00 | 60 | 1014.8 |
| 20260507063207 | 47 | 239 | 4.0 | 7.0 | 0.00 | 0.00 | 0.00 | 64 | 1014.7 |
| 20260507062705 | 47 | 271 | 3.0 | 8.0 | 0.00 | 0.00 | 0.00 | 64 | 1014.7 |
| 20260507062206 | 47 | 272 | 3.0 | 8.0 | 0.00 | 0.00 | 0.00 | 65 | 1014.7 |
| 20260507061717 | 46 | 248 | 3.0 | 8.0 | 0.00 | 0.00 | 0.00 | 65 | 1014.6 |
| 20260507060207 | 44 | 243 | 1.0 | 3.0 | 0.00 | 0.00 | 0.00 | 76 | 1014.5 |
| 20260507055705 | 44 | 243 | 0.0 | 0.0 | 0.00 | 0.00 | 0.00 | 76 | 1014.5 |
| 20260507055204 | 43 | 275 | 0.0 | 0.0 | 0.00 | 0.00 | 0.00 | 78 | 1014.5 |
| 20260507054707 | 42 | 275 | 0.0 | 0.0 | 0.00 | 0.00 | 0.00 | 79 | 1014.4 |
| 20260507054211 | 42 | 275 | 0.0 | 0.0 | 0.00 | 0.00 | 0.00 | 79 | 1014.4 |
| 20260507053207 | 42 | 275 | 0.0 | 0.0 | 0.00 | 0.00 | 0.00 | 80 | 1014.3 |
| 20260507052705 | 41 | 275 | 0.0 | 0.0 | 0.00 | 0.00 | 0.00 | 83 | 1014.2 |
| 20260507052206 | 40 | 275 | 0.0 | 0.0 | 0.00 | 0.00 | 0.00 | 85 | 1014.2 |
| 20260507051720 | 38 | 275 | 0.0 | 0.0 | 0.00 | 0.00 | 0.00 | 86 | 1014.2 |
| 20260507051206 | 37 | 275 | 0.0 | 0.0 | 0.00 | 0.00 | 0.00 | 87 | 1014.2 |
| 20260507050205 | 35 | 275 | 0.0 | 0.0 | 0.00 | 0.00 | 0.00 | 87 | 1014.0 |
| 20260507045705 | 34 | 275 | 0.0 | 0.0 | 0.00 | 0.00 | 0.00 | 87 | 1014.0 |
| 20260507045205 | 34 | 276 | 0.0 | 0.0 | 0.00 | 0.00 | 0.00 | 86 | 1014.0 |
| 20260507044708 | 33 | 276 | 0.0 | 0.0 | 0.00 | 0.00 | 0.00 | 86 | 1014.0 |
| 20260507044206 | 33 | 276 | 0.0 | 0.0 | 0.00 | 0.00 | 0.00 | 86 | 1014.0 |
| 20260507043705 | 32 | 276 | 0.0 | 0.0 | 0.00 | 0.00 | 0.00 | 87 | 1014.0 |
| 20260507043207 | 31 | 276 | 0.0 | 0.0 | 0.00 | 0.00 | 0.00 | 86 | 1013.9 |
| 20260507042707 | 31 | 276 | 0.0 | 0.0 | 0.00 | 0.00 | 0.00 | 86 | 1014.0 |
| 20260507041714 | 30 | 276 | 0.0 | 0.0 | 0.00 | 0.00 | 0.00 | 86 | 1013.8 |
| 20260507040707 | 29 | 276 | 0.0 | 0.0 | 0.00 | 0.00 | 0.00 | 86 | 1013.8 |
| 20260507040205 | 29 | 276 | 0.0 | 0.0 | 0.00 | 0.00 | 0.00 | 86 | 1013.8 |
| 20260507035705 | 29 | 276 | 0.0 | 0.0 | 0.00 | 0.00 | 0.00 | 86 | 1013.8 |
| 20260507035204 | 29 | 276 | 0.0 | 0.0 | 0.00 | 0.00 | 0.00 | 86 | 1013.8 |
| 20260507034704 | 29 | 275 | 0.0 | 0.0 | 0.00 | 0.00 | 0.00 | 86 | 1013.7 |
| 20260507034205 | 29 | 276 | 0.0 | 0.0 | 0.00 | 0.00 | 0.00 | 86 | 1013.7 |
| 20260507033705 | 29 | 276 | 0.0 | 0.0 | 0.00 | 0.00 | 0.00 | 87 | 1013.7 |
| 20260507033207 | 28 | 275 | 0.0 | 0.0 | 0.00 | 0.00 | 0.00 | 86 | 1013.6 |
| 20260507032205 | 28 | 275 | 0.0 | 0.0 | 0.00 | 0.00 | 0.00 | 85 | 1013.6 |
| 20260507031705 | 28 | 276 | 0.0 | 0.0 | 0.00 | 0.00 | 0.00 | 85 | 1013.6 |
| 20260507031205 | 28 | 276 | 0.0 | 0.0 | 0.00 | 0.00 | 0.00 | 85 | 1013.6 |
| 20260507030705 | 28 | 275 | 0.0 | 0.0 | 0.00 | 0.00 | 0.00 | 85 | 1013.5 |
| 20260507025205 | 29 | 275 | 0.0 | 0.0 | 0.00 | 0.00 | 0.00 | 84 | 1013.5 |
| 20260507024704 | 29 | 276 | 0.0 | 0.0 | 0.00 | 0.00 | 0.00 | 84 | 1013.4 |
| 20260507024205 | 29 | 275 | 0.0 | 0.0 | 0.00 | 0.00 | 0.00 | 84 | 1013.4 |
| 20260507023704 | 29 | 275 | 0.0 | 0.0 | 0.00 | 0.00 | 0.00 | 84 | 1013.4 |
| 20260507022704 | 30 | 276 | 0.0 | 0.0 | 0.00 | 0.00 | 0.00 | 84 | 1013.3 |
| 20260507022204 | 30 | 275 | 0.0 | 0.0 | 0.00 | 0.00 | 0.00 | 84 | 1013.3 |
| 20260507021711 | 30 | 275 | 0.0 | 0.0 | 0.00 | 0.00 | 0.00 | 84 | 1013.1 |
| 20260507021204 | 30 | 275 | 0.0 | 0.0 | 0.00 | 0.00 | 0.00 | 83 | 1013.1 |
| 20260507020704 | 30 | 276 | 0.0 | 0.0 | 0.00 | 0.00 | 0.00 | 84 | 1013.2 |
| 20260507020204 | 30 | 276 | 0.0 | 0.0 | 0.00 | 0.00 | 0.00 | 83 | 1013.1 |
| 20260507015204 | 31 | 275 | 0.0 | 0.0 | 0.00 | 0.00 | 0.00 | 82 | 1013.1 |
| 20260507014708 | 31 | 275 | 0.0 | 0.0 | 0.00 | 0.00 | 0.00 | 82 | 1013.1 |
| 20260507014205 | 31 | 275 | 0.0 | 0.0 | 0.00 | 0.00 | 0.00 | 82 | 1013.0 |
| 20260507013704 | 31 | 276 | 0.0 | 0.0 | 0.00 | 0.00 | 0.00 | 82 | 1013.1 |
| 20260507012706 | 31 | 276 | 0.0 | 0.0 | 0.00 | 0.00 | 0.00 | 81 | 1013.0 |
| 20260507012205 | 31 | 275 | 0.0 | 0.0 | 0.00 | 0.00 | 0.00 | 80 | 1013.0 |
| 20260507011704 | 32 | 275 | 0.0 | 0.0 | 0.00 | 0.00 | 0.00 | 80 | 1013.0 |
| 20260507011211 | 32 | 276 | 0.0 | 0.0 | 0.00 | 0.00 | 0.00 | 80 | 1012.9 |
| 20260507010716 | 32 | 275 | 0.0 | 0.0 | 0.00 | 0.00 | 0.00 | 80 | 1012.9 |
| 20260507005711 | 33 | 275 | 0.0 | 0.0 | 0.00 | 0.00 | 0.00 | 80 | 1012.8 |
| 20260507005206 | 33 | 276 | 0.0 | 0.0 | 0.00 | 0.00 | 0.00 | 79 | 1012.9 |
| 20260507005029 | 33 | 275 | 0.0 | 0.0 | 0.00 | 0.00 | 0.00 | 79 | 1012.8 |
| 20260507004206 | 33 | 275 | 0.0 | 0.0 | 0.00 | 0.00 | 0.00 | 78 | 1012.8 |
| 20260507003706 | 33 | 275 | 0.0 | 0.0 | 0.00 | 0.00 | 0.00 | 78 | 1012.8 |
| 20260507003206 | 34 | 275 | 0.0 | 0.0 | 0.00 | 0.00 | 0.00 | 78 | 1012.7 |
| 20260507002705 | 34 | 275 | 0.0 | 0.0 | 0.00 | 0.00 | 0.00 | 77 | 1012.8 |
| 20260507002206 | 34 | 275 | 0.0 | 0.0 | 0.00 | 0.00 | 0.00 | 77 | 1012.7 |
| 20260507001712 | 34 | 275 | 0.0 | 0.0 | 0.00 | 0.00 | 0.00 | 77 | 1012.7 |
| 20260507001205 | 34 | 275 | 0.0 | 0.0 | 0.00 | 0.00 | 0.00 | 76 | 1012.6 |
| 20260507000705 | 35 | 276 | 0.0 | 0.0 | 0.00 | 0.00 | 0.00 | 75 | 1012.6 |
| 20260506235706 | 35 | 275 | 0.0 | 0.0 | 0.00 | 0.00 | 0.00 | 75 | 1012.5 |
| 20260506235205 | 36 | 276 | 0.0 | 0.0 | 0.00 | 0.00 | 0.00 | 74 | 1012.5 |
| 20260506234711 | 36 | 275 | 0.0 | 0.0 | 0.00 | 0.00 | 0.00 | 73 | 1012.5 |
| 20260506234206 | 37 | 275 | 0.0 | 0.0 | 0.00 | 0.00 | 0.00 | 73 | 1012.4 |
| 20260506233705 | 37 | 275 | 0.0 | 0.0 | 0.00 | 0.00 | 0.00 | 73 | 1012.4 |
| 20260506233205 | 37 | 275 | 0.0 | 0.0 | 0.00 | 0.00 | 0.00 | 73 | 1012.4 |
| 20260506232707 | 37 | 275 | 0.0 | 0.0 | 0.00 | 0.00 | 0.00 | 73 | 1012.5 |
| 20260506232205 | 37 | 276 | 0.0 | 0.0 | 0.00 | 0.00 | 0.00 | 72 | 1012.5 |
| 20260506231707 | 38 | 276 | 0.0 | 0.0 | 0.00 | 0.00 | 0.00 | 72 | 1012.4 |
| 20260506230709 | 38 | 276 | 0.0 | 0.0 | 0.00 | 0.00 | 0.00 | 73 | 1012.3 |
| 20260506225707 | 37 | 276 | 0.0 | 0.0 | 0.00 | 0.00 | 0.00 | 73 | 1012.2 |
| 20260506225517 | 37 | 276 | 0.0 | 0.0 | 0.00 | 0.00 | 0.00 | 73 | 1012.1 |
| 20260506224726 | 37 | 276 | 0.0 | 0.0 | 0.00 | 0.00 | 0.00 | 74 | 1012.1 |
| 20260506224206 | 37 | 276 | 0.0 | 0.0 | 0.00 | 0.00 | 0.00 | 74 | 1012.1 |
| 20260506223705 | 37 | 276 | 0.0 | 0.0 | 0.00 | 0.00 | 0.00 | 74 | 1012.1 |
| 20260506223204 | 37 | 276 | 0.0 | 0.0 | 0.00 | 0.00 | 0.00 | 74 | 1012.1 |
| 20260506222706 | 37 | 276 | 0.0 | 0.0 | 0.00 | 0.00 | 0.00 | 73 | 1012.0 |
| 20260506222208 | 37 | 276 | 0.0 | 0.0 | 0.00 | 0.00 | 0.00 | 73 | 1012.0 |
| 20260506221710 | 37 | 276 | 0.0 | 0.0 | 0.00 | 0.00 | 0.00 | 73 | 1012.0 |
| 20260506221210 | 37 | 276 | 0.0 | 0.0 | 0.00 | 0.00 | 0.00 | 73 | 1012.0 |
| 20260506220706 | 37 | 276 | 0.0 | 0.0 | 0.00 | 0.00 | 0.00 | 72 | 1012.0 |
| 20260506220207 | 37 | 276 | 0.0 | 0.0 | 0.00 | 0.00 | 0.00 | 72 | 1012.0 |
| 20260506215706 | 37 | 276 | 0.0 | 0.0 | 0.00 | 0.00 | 0.00 | 71 | 1012.0 |
| 20260506215207 | 38 | 276 | 0.0 | 0.0 | 0.00 | 0.00 | 0.00 | 71 | 1011.9 |
| 20260506214706 | 38 | 276 | 0.0 | 0.0 | 0.00 | 0.00 | 0.00 | 71 | 1011.8 |
| 20260506214206 | 38 | 276 | 0.0 | 0.0 | 0.00 | 0.00 | 0.00 | 70 | 1011.8 |
| 20260506213705 | 38 | 276 | 0.0 | 0.0 | 0.00 | 0.00 | 0.00 | 69 | 1011.7 |
| 20260506213205 | 38 | 276 | 0.0 | 0.0 | 0.00 | 0.00 | 0.00 | 69 | 1011.7 |
| 20260506212707 | 39 | 276 | 0.0 | 0.0 | 0.00 | 0.00 | 0.00 | 69 | 1011.6 |
| 20260506212206 | 39 | 276 | 0.0 | 0.0 | 0.00 | 0.00 | 0.00 | 69 | 1011.6 |
| 20260506211718 | 39 | 276 | 0.0 | 0.0 | 0.00 | 0.00 | 0.00 | 68 | 1011.5 |
| 20260506211205 | 39 | 276 | 0.0 | 0.0 | 0.00 | 0.00 | 0.00 | 68 | 1011.5 |
| 20260506210705 | 40 | 276 | 0.0 | 0.0 | 0.00 | 0.00 | 0.00 | 67 | 1011.5 |